Time;durP1;ratioP1;P1;durP2;ratioP2;P2;SDS_P1;SDS_P2;PMS_P1;PMS_P2;Temp;Humidity;BMP_temperature;BMP_pressure;BME280_temperature;BME280_humidity;BME280_pressure;Samples;Min_cycle;Max_cycle;Signal;HPM_P1;HPM_P2
2023/04/16 00:00:39;;;;;;;4.90;3.70;;;6.30;99.90;;;;;;5054917;28;20415;-75
2023/04/16 00:03:05;;;;;;;7.03;4.23;;;6.30;99.90;;;;;;5050337;28;20209;-75
2023/04/16 00:05:30;;;;;;;8.47;4.00;;;6.30;99.90;;;;;;5056257;28;20642;-75
2023/04/16 00:07:56;;;;;;;7.47;5.03;;;6.30;99.90;;;;;;5050735;28;20274;-75
2023/04/16 00:10:22;;;;;;;9.50;5.03;;;6.30;99.90;;;;;;5053518;28;20182;-75
2023/04/16 00:12:47;;;;;;;10.30;5.40;;;6.30;99.90;;;;;;5050556;28;20181;-75
2023/04/16 00:15:13;;;;;;;9.87;4.87;;;6.30;99.90;;;;;;5050849;28;20178;-75
2023/04/16 00:17:38;;;;;;;11.00;6.40;;;6.30;99.90;;;;;;5052755;28;20185;-76
2023/04/16 00:20:05;;;;;;;8.60;5.30;;;6.30;99.90;;;;;;5052719;28;20239;-74
2023/04/16 00:22:31;;;;;;;10.50;5.10;;;6.30;99.90;;;;;;5050082;28;20178;-75
2023/04/16 00:24:56;;;;;;;11.80;5.60;;;6.30;99.90;;;;;;5054781;28;20932;-75
2023/04/16 00:27:22;;;;;;;10.60;5.20;;;6.30;99.90;;;;;;5054565;28;20233;-75
2023/04/16 00:29:47;;;;;;;12.10;6.57;;;6.30;99.90;;;;;;5054943;28;20626;-76
2023/04/16 00:32:13;;;;;;;11.17;6.70;;;6.30;99.90;;;;;;5054988;28;20184;-75
2023/04/16 00:34:39;;;;;;;10.97;6.50;;;6.20;99.90;;;;;;5052671;28;20175;-74
2023/04/16 00:37:04;;;;;;;14.33;6.10;;;6.30;99.90;;;;;;5055093;28;20284;-75
2023/04/16 00:39:30;;;;;;;9.17;4.83;;;6.30;99.90;;;;;;5049515;28;20174;-75
2023/04/16 00:41:56;;;;;;;10.50;6.17;;;6.30;99.90;;;;;;5049678;28;20186;-75
2023/04/16 00:44:21;;;;;;;10.13;6.03;;;6.30;99.90;;;;;;5051569;28;20304;-76
2023/04/16 00:46:47;;;;;;;9.40;5.33;;;6.30;99.90;;;;;;5051565;28;20204;-75
2023/04/16 00:49:13;;;;;;;9.30;5.73;;;6.30;99.90;;;;;;5049648;28;20185;-75
2023/04/16 00:51:39;;;;;;;12.67;4.93;;;6.30;99.90;;;;;;5052481;28;20517;-75
2023/04/16 00:54:05;;;;;;;10.60;5.60;;;6.30;99.90;;;;;;5051912;28;20537;-75
2023/04/16 00:56:32;;;;;;;11.37;5.47;;;6.30;99.90;;;;;;5052433;28;20257;-74
2023/04/16 00:58:58;;;;;;;14.97;6.13;;;6.30;99.90;;;;;;5058234;28;20418;-75
2023/04/16 01:01:24;;;;;;;8.90;4.33;;;6.30;99.90;;;;;;5057042;28;20430;-75
2023/04/16 01:03:50;;;;;;;13.50;6.40;;;6.30;99.90;;;;;;5053360;28;20416;-75
2023/04/16 01:06:18;;;;;;;11.00;5.87;;;6.20;99.90;;;;;;5060098;28;20423;-75
2023/04/16 01:08:46;;;;;;;12.93;5.67;;;6.30;99.90;;;;;;5056248;28;20186;-75
2023/04/16 01:11:12;;;;;;;8.97;5.60;;;6.20;99.90;;;;;;5054848;28;20420;-75
2023/04/16 01:13:38;;;;;;;10.00;5.50;;;6.30;99.90;;;;;;5061553;28;20446;-75
2023/04/16 01:16:08;;;;;;;12.97;5.87;;;6.30;99.90;;;;;;5054028;28;20429;-76
2023/04/16 01:18:34;;;;;;;10.80;5.43;;;6.30;99.90;;;;;;5057786;28;20572;-74
2023/04/16 01:21:00;;;;;;;9.70;5.40;;;6.30;99.90;;;;;;5058451;28;20809;-75
2023/04/16 01:23:26;;;;;;;7.60;4.50;;;6.20;99.90;;;;;;5054353;28;20428;-75
2023/04/16 01:25:51;;;;;;;12.63;6.67;;;6.30;99.90;;;;;;5058085;28;20177;-75
2023/04/16 01:28:17;;;;;;;11.20;6.30;;;6.30;99.90;;;;;;5056283;28;20205;-76
2023/04/16 01:30:43;;;;;;;9.43;4.50;;;6.20;99.90;;;;;;5057583;28;20182;-75
2023/04/16 01:33:12;;;;;;;13.83;4.93;;;6.30;99.90;;;;;;5051485;28;20638;-75
2023/04/16 01:35:40;;;;;;;12.03;5.47;;;6.30;99.90;;;;;;5057308;28;20186;-75
2023/04/16 01:38:07;;;;;;;14.20;6.37;;;6.40;99.90;;;;;;5061454;28;20431;-75
2023/04/16 01:40:33;;;;;;;10.27;5.30;;;6.30;99.90;;;;;;5053629;28;20473;-75
2023/04/16 01:42:58;;;;;;;9.90;5.17;;;6.20;99.90;;;;;;5053719;28;20931;-75
2023/04/16 01:45:24;;;;;;;7.87;4.40;;;6.20;99.90;;;;;;5053742;28;20679;-75
2023/04/16 01:47:50;;;;;;;5.97;3.83;;;6.30;99.90;;;;;;5059349;28;20225;-75
2023/04/16 01:50:17;;;;;;;7.10;3.87;;;6.30;99.90;;;;;;5060428;28;20186;-75
2023/04/16 01:52:43;;;;;;;6.07;4.10;;;6.30;99.90;;;;;;5061712;28;21122;-74
2023/04/16 01:55:09;;;;;;;9.03;4.10;;;6.30;99.90;;;;;;5055127;28;20420;-75
2023/04/16 01:57:34;;;;;;;9.73;4.03;;;6.30;99.90;;;;;;5058345;28;20208;-75
2023/04/16 02:00:00;;;;;;;4.67;3.03;;;6.20;99.90;;;;;;5055706;28;20420;-75
2023/04/16 02:02:27;;;;;;;8.03;4.60;;;6.30;99.90;;;;;;5059514;28;20651;-75
2023/04/16 02:04:55;;;;;;;5.40;3.37;;;6.20;99.90;;;;;;5057422;28;20607;-75
2023/04/16 02:07:21;;;;;;;5.90;2.80;;;6.20;99.90;;;;;;5060020;28;20456;-75
2023/04/16 02:09:46;;;;;;;7.33;2.83;;;6.20;99.90;;;;;;5064288;28;20424;-75
2023/04/16 02:12:12;;;;;;;9.00;3.30;;;6.30;99.90;;;;;;5055175;28;20280;-75
2023/04/16 02:14:38;;;;;;;6.80;2.90;;;6.20;99.90;;;;;;5052386;28;20185;-75
2023/04/16 02:17:03;;;;;;;5.13;2.43;;;6.20;99.90;;;;;;5055393;28;20181;-75
2023/04/16 02:19:29;;;;;;;4.57;2.40;;;6.20;99.90;;;;;;5057901;28;20182;-75
2023/04/16 02:21:55;;;;;;;6.13;2.97;;;6.20;99.90;;;;;;5060526;28;20203;-75
2023/04/16 02:24:20;;;;;;;6.77;3.03;;;6.20;99.90;;;;;;5056309;28;20181;-75
2023/04/16 02:26:46;;;;;;;3.37;2.23;;;6.20;99.90;;;;;;5061802;28;20666;-74
2023/04/16 02:29:12;;;;;;;5.07;2.80;;;6.20;99.90;;;;;;5053472;28;20240;-74
2023/04/16 02:31:38;;;;;;;4.70;2.60;;;6.20;99.90;;;;;;5055225;28;20412;-74
2023/04/16 02:34:04;;;;;;;4.60;2.90;;;6.20;99.90;;;;;;5062508;28;20177;-74
2023/04/16 02:36:30;;;;;;;4.67;2.20;;;6.20;99.90;;;;;;5055381;28;20511;-74
2023/04/16 02:38:57;;;;;;;4.10;2.00;;;6.20;99.90;;;;;;5061905;28;20473;-74
2023/04/16 02:41:22;;;;;;;8.03;2.43;;;6.20;99.90;;;;;;5055103;28;21211;-74
2023/04/16 02:43:48;;;;;;;6.13;2.97;;;6.20;99.90;;;;;;5050705;28;20425;-75
2023/04/16 02:46:14;;;;;;;7.77;2.97;;;6.20;99.90;;;;;;5056171;28;20225;-75
2023/04/16 02:48:39;;;;;;;5.00;2.90;;;6.20;99.90;;;;;;5058987;28;20552;-74
2023/04/16 02:51:05;;;;;;;6.00;3.07;;;6.20;99.90;;;;;;5052220;28;20538;-75
2023/04/16 02:53:31;;;;;;;5.17;2.33;;;6.20;99.90;;;;;;5051918;28;20249;-75
2023/04/16 02:55:56;;;;;;;5.47;2.80;;;6.30;99.90;;;;;;5055860;28;20221;-75
2023/04/16 02:58:24;;;;;;;5.50;2.50;;;6.20;99.90;;;;;;5058365;28;20186;-74
2023/04/16 03:00:50;;;;;;;4.07;2.20;;;6.20;99.90;;;;;;5053978;28;20174;-75
2023/04/16 03:03:16;;;;;;;5.80;2.87;;;6.20;99.90;;;;;;5055710;28;20434;-75
2023/04/16 03:05:42;;;;;;;3.60;2.40;;;6.20;99.90;;;;;;5056252;28;20903;-75
2023/04/16 03:08:08;;;;;;;3.83;2.30;;;6.20;99.90;;;;;;5051781;28;20229;-75
2023/04/16 03:10:35;;;;;;;3.57;2.43;;;6.20;99.90;;;;;;5052611;28;20194;-75
2023/04/16 03:13:01;;;;;;;12.50;2.70;;;6.20;99.90;;;;;;5056782;28;20257;-75
2023/04/16 03:15:26;;;;;;;7.13;2.50;;;6.20;99.90;;;;;;5054616;28;20515;-75
2023/04/16 03:17:52;;;;;;;5.63;3.13;;;6.30;99.90;;;;;;5058606;28;20962;-75
2023/04/16 03:20:18;;;;;;;6.60;3.23;;;6.20;99.90;;;;;;5050054;28;20575;-75
2023/04/16 03:22:47;;;;;;;6.27;2.40;;;6.20;99.90;;;;;;5052021;28;20503;-74
2023/04/16 03:25:13;;;;;;;6.83;3.47;;;6.20;99.90;;;;;;5051243;28;20420;-74
2023/04/16 03:27:39;;;;;;;5.87;3.33;;;6.10;99.90;;;;;;5055119;28;20471;-74
2023/04/16 03:30:06;;;;;;;6.30;3.10;;;6.20;99.90;;;;;;5062498;28;20193;-73
2023/04/16 03:32:32;;;;;;;7.60;4.60;;;6.10;99.90;;;;;;5062080;28;20260;-73
2023/04/16 03:34:57;;;;;;;8.47;3.73;;;6.20;99.90;;;;;;5050920;28;21310;-74
2023/04/16 03:37:23;;;;;;;11.33;4.57;;;6.10;99.90;;;;;;5059483;28;20254;-74
2023/04/16 03:39:49;;;;;;;8.80;5.00;;;6.10;99.90;;;;;;5055060;28;20177;-74
2023/04/16 03:42:15;;;;;;;10.27;4.83;;;6.20;99.90;;;;;;5049910;28;20200;-74
2023/04/16 03:44:40;;;;;;;10.70;5.20;;;6.20;99.90;;;;;;5049333;28;20231;-74
2023/04/16 03:47:06;;;;;;;14.60;6.10;;;6.20;99.90;;;;;;5049859;28;20208;-74
2023/04/16 03:49:32;;;;;;;12.17;6.33;;;6.20;99.90;;;;;;5052751;28;20201;-74
2023/04/16 03:51:57;;;;;;;10.10;4.87;;;6.10;99.90;;;;;;5052254;28;20182;-74
2023/04/16 03:54:23;;;;;;;15.00;6.10;;;6.10;99.90;;;;;;5052133;28;20186;-73
2023/04/16 03:56:48;;;;;;;7.40;4.20;;;6.20;99.90;;;;;;5056520;28;20209;-73
2023/04/16 03:59:14;;;;;;;9.77;5.37;;;6.10;99.90;;;;;;5059320;28;20288;-74
2023/04/16 04:01:40;;;;;;;8.00;5.10;;;6.10;99.90;;;;;;5051687;28;20268;-73
2023/04/16 04:04:06;;;;;;;11.03;6.30;;;6.10;99.90;;;;;;5059109;28;20256;-74
2023/04/16 04:06:31;;;;;;;12.03;6.00;;;6.10;99.90;;;;;;5055085;28;20174;-74
2023/04/16 04:08:58;;;;;;;15.27;6.30;;;6.10;99.90;;;;;;5051464;28;20178;-74
2023/04/16 04:11:23;;;;;;;9.47;5.00;;;6.10;99.90;;;;;;5052890;28;20176;-73
2023/04/16 04:13:49;;;;;;;11.17;5.83;;;6.10;99.90;;;;;;5052234;28;20417;-73
2023/04/16 04:16:15;;;;;;;12.90;6.27;;;6.10;99.90;;;;;;5058653;28;20193;-74
2023/04/16 04:18:40;;;;;;;9.63;4.83;;;6.10;99.90;;;;;;5055259;28;20174;-73
2023/04/16 04:21:07;;;;;;;14.53;5.70;;;6.10;99.90;;;;;;5051336;28;20186;-71
2023/04/16 04:23:36;;;;;;;9.97;5.33;;;6.20;99.90;;;;;;5053103;28;20312;-74
2023/04/16 04:26:04;;;;;;;9.90;5.50;;;6.10;99.90;;;;;;5055066;28;20462;-74
2023/04/16 04:28:31;;;;;;;15.03;6.07;;;6.10;99.90;;;;;;5061829;28;20463;-74
2023/04/16 04:30:58;;;;;;;9.00;5.70;;;6.10;99.90;;;;;;5056371;28;20897;-73
2023/04/16 04:33:25;;;;;;;10.77;5.53;;;6.10;99.90;;;;;;5054505;28;20429;-74
2023/04/16 04:35:51;;;;;;;8.70;4.73;;;6.10;99.90;;;;;;5059876;28;20502;-73
2023/04/16 04:38:18;;;;;;;9.13;4.47;;;6.10;99.90;;;;;;5062498;28;20510;-74
2023/04/16 04:40:45;;;;;;;10.70;5.40;;;6.10;99.90;;;;;;5058229;28;21108;-73
2023/04/16 04:43:11;;;;;;;7.70;4.27;;;6.10;99.90;;;;;;5060358;28;20420;-74
2023/04/16 04:45:36;;;;;;;7.40;4.53;;;6.10;99.90;;;;;;5059810;28;20875;-74
2023/04/16 04:48:02;;;;;;;9.83;4.90;;;6.10;99.90;;;;;;5058012;28;20197;-74
2023/04/16 04:50:28;;;;;;;8.03;4.50;;;6.10;99.90;;;;;;5061746;28;20181;-74
2023/04/16 04:52:53;;;;;;;13.70;4.63;;;6.10;99.90;;;;;;5058147;28;20173;-74
2023/04/16 04:55:19;;;;;;;10.30;4.43;;;6.20;99.90;;;;;;5056844;28;20208;-74
2023/04/16 04:57:45;;;;;;;12.53;3.97;;;6.20;99.90;;;;;;5060541;28;20208;-74
2023/04/16 05:00:11;;;;;;;5.80;3.93;;;6.10;99.90;;;;;;5055270;28;20184;-74
2023/04/16 05:02:37;;;;;;;4.80;3.30;;;6.10;99.90;;;;;;5054745;28;20186;-74
2023/04/16 05:05:03;;;;;;;8.30;4.90;;;6.10;99.90;;;;;;5058384;28;20192;-74
2023/04/16 05:07:29;;;;;;;7.43;3.63;;;6.10;99.90;;;;;;5059724;28;20463;-74
2023/04/16 05:09:55;;;;;;;8.90;5.03;;;6.10;99.90;;;;;;5059007;28;20420;-74
2023/04/16 05:12:21;;;;;;;8.07;4.10;;;6.20;99.90;;;;;;5058653;28;20439;-74
2023/04/16 05:14:46;;;;;;;9.67;4.80;;;6.20;99.90;;;;;;5058181;28;20802;-74
2023/04/16 05:17:12;;;;;;;10.27;4.77;;;6.20;99.90;;;;;;5054425;28;20268;-74
2023/04/16 05:19:37;;;;;;;5.30;3.20;;;6.10;99.90;;;;;;5061431;28;20192;-74
2023/04/16 05:22:03;;;;;;;8.40;3.70;;;6.10;99.90;;;;;;5058572;28;20182;-73
2023/04/16 05:24:29;;;;;;;7.73;4.40;;;6.10;99.90;;;;;;5057908;28;20189;-73
2023/04/16 05:26:56;;;;;;;15.30;5.90;;;6.10;99.90;;;;;;5060388;28;20237;-74
2023/04/16 05:29:21;;;;;;;9.10;4.97;;;6.10;99.90;;;;;;5056893;28;20210;-73
2023/04/16 05:31:47;;;;;;;12.63;5.23;;;6.20;99.90;;;;;;5061402;28;20507;-74
2023/04/16 05:34:12;;;;;;;12.40;4.90;;;6.10;99.90;;;;;;5059184;28;20269;-74
2023/04/16 05:36:38;;;;;;;8.30;4.60;;;6.10;99.90;;;;;;5061664;28;20201;-74
2023/04/16 05:39:05;;;;;;;11.27;5.70;;;6.10;99.90;;;;;;5065903;28;20256;-74
2023/04/16 05:41:30;;;;;;;15.67;6.03;;;6.10;99.90;;;;;;5060679;28;20679;-74
2023/04/16 05:43:56;;;;;;;19.20;6.87;;;6.10;99.90;;;;;;5061494;28;20510;-74
2023/04/16 05:46:21;;;;;;;17.83;7.60;;;6.10;99.90;;;;;;5058522;28;20205;-74
2023/04/16 05:48:47;;;;;;;18.00;8.00;;;6.10;99.90;;;;;;5057027;28;20323;-75
2023/04/16 05:51:13;;;;;;;15.50;8.10;;;6.10;99.90;;;;;;5055039;28;20188;-75
2023/04/16 05:53:38;;;;;;;12.97;7.90;;;6.10;99.90;;;;;;5058895;28;20177;-75
2023/04/16 05:56:04;;;;;;;16.77;8.60;;;6.10;99.90;;;;;;5058297;28;20650;-74
2023/04/16 05:58:30;;;;;;;22.60;10.03;;;6.10;99.90;;;;;;5057019;28;20531;-74
2023/04/16 06:00:56;;;;;;;18.77;8.63;;;6.10;99.90;;;;;;5057265;28;20411;-74
2023/04/16 06:03:21;;;;;;;25.73;10.30;;;6.10;99.90;;;;;;5061852;28;20212;-74
2023/04/16 06:05:47;;;;;;;31.50;8.30;;;6.00;99.90;;;;;;5059315;28;20267;-75
2023/04/16 06:08:12;;;;;;;18.97;9.67;;;6.10;99.90;;;;;;5059212;28;20346;-74
2023/04/16 06:10:38;;;;;;;25.80;11.20;;;6.10;99.90;;;;;;5058242;28;20188;-74
2023/04/16 06:13:04;;;;;;;26.07;10.67;;;6.10;99.90;;;;;;5056574;28;20184;-74
2023/04/16 06:15:29;;;;;;;22.23;9.97;;;6.00;99.90;;;;;;5055354;28;20624;-74
2023/04/16 06:17:55;;;;;;;25.07;10.53;;;6.00;99.90;;;;;;5059197;28;20268;-74
2023/04/16 06:20:20;;;;;;;26.47;10.17;;;6.00;99.90;;;;;;5055511;28;20256;-75
2023/04/16 06:22:46;;;;;;;25.97;10.00;;;6.00;99.90;;;;;;5059456;28;20188;-75
2023/04/16 06:25:12;;;;;;;17.73;9.60;;;6.00;99.90;;;;;;5058706;28;20205;-74
2023/04/16 06:27:37;;;;;;;23.97;9.53;;;6.10;99.90;;;;;;5055772;28;20639;-74
2023/04/16 06:30:03;;;;;;;25.17;10.37;;;6.00;99.90;;;;;;5056657;28;20180;-75
2023/04/16 06:32:29;;;;;;;21.97;10.43;;;6.00;99.90;;;;;;5056904;28;20190;-75
2023/04/16 06:34:57;;;;;;;28.53;11.33;;;6.00;99.90;;;;;;5058376;28;20416;-73
2023/04/16 06:37:23;;;;;;;19.47;9.30;;;6.00;99.90;;;;;;5061584;28;20223;-75
2023/04/16 06:39:48;;;;;;;19.17;10.57;;;6.00;99.90;;;;;;5061048;28;20428;-75
2023/04/16 06:42:14;;;;;;;19.93;9.77;;;6.00;99.90;;;;;;5061911;28;20205;-75
2023/04/16 06:44:40;;;;;;;34.80;13.03;;;6.10;99.90;;;;;;5054214;28;20193;-75
2023/04/16 06:47:06;;;;;;;22.63;11.60;;;6.10;99.90;;;;;;5053825;28;20591;-76
2023/04/16 06:49:32;;;;;;;19.63;9.80;;;6.00;99.90;;;;;;5061848;28;20174;-75
2023/04/16 06:51:58;;;;;;;30.60;11.87;;;6.00;99.90;;;;;;5056514;28;20733;-75
2023/04/16 06:54:23;;;;;;;28.37;12.70;;;6.00;99.90;;;;;;5060857;28;20504;-75
2023/04/16 06:56:49;;;;;;;26.50;12.60;;;6.00;99.90;;;;;;5057423;28;20182;-76
2023/04/16 06:59:15;;;;;;;38.87;14.00;;;6.00;99.90;;;;;;5060577;28;20169;-75
2023/04/16 07:01:40;;;;;;;26.10;13.07;;;6.00;99.90;;;;;;5059603;28;20650;-75
2023/04/16 07:04:06;;;;;;;31.67;13.10;;;6.00;99.90;;;;;;5058477;28;20185;-75
2023/04/16 07:06:31;;;;;;;30.53;14.67;;;6.00;99.90;;;;;;5060658;28;20177;-75
2023/04/16 07:08:57;;;;;;;30.70;14.93;;;6.10;99.90;;;;;;5058865;28;20696;-75
2023/04/16 07:11:23;;;;;;;47.03;16.67;;;6.00;99.90;;;;;;5055404;28;20631;-76
2023/04/16 07:13:49;;;;;;;31.20;14.70;;;6.10;99.90;;;;;;5054713;28;20181;-75
2023/04/16 07:16:16;;;;;;;34.43;14.37;;;6.00;99.90;;;;;;5057228;28;20226;-75
2023/04/16 07:18:42;;;;;;;35.97;14.47;;;6.00;99.90;;;;;;5065230;28;20463;-75
2023/04/16 07:21:08;;;;;;;32.13;12.80;;;6.00;99.90;;;;;;5064155;28;20485;-76
2023/04/16 07:23:33;;;;;;;38.80;15.87;;;6.10;99.90;;;;;;5056137;28;20284;-76
2023/04/16 07:25:59;;;;;;;30.27;13.33;;;6.10;99.90;;;;;;5067897;28;20190;-75
2023/04/16 07:28:25;;;;;;;25.90;14.43;;;6.10;99.90;;;;;;5060776;28;20205;-76
2023/04/16 07:30:50;;;;;;;29.07;13.97;;;6.00;99.90;;;;;;5059887;28;20416;-76
2023/04/16 07:33:16;;;;;;;31.37;13.27;;;6.10;99.90;;;;;;5060687;28;20186;-76
2023/04/16 07:35:42;;;;;;;40.57;13.37;;;6.10;99.90;;;;;;5062932;28;20668;-77
2023/04/16 07:38:07;;;;;;;25.17;13.73;;;6.10;99.90;;;;;;5058277;28;20181;-76
2023/04/16 07:40:33;;;;;;;32.07;12.80;;;6.10;99.90;;;;;;5060572;28;20634;-76
2023/04/16 07:42:59;;;;;;;24.33;12.57;;;6.10;99.90;;;;;;5057635;28;20259;-76
2023/04/16 07:45:25;;;;;;;36.90;14.23;;;6.10;99.90;;;;;;5051215;28;20526;-76
2023/04/16 07:47:50;;;;;;;30.17;14.03;;;6.10;99.90;;;;;;5060689;28;20558;-76
2023/04/16 07:50:18;;;;;;;38.37;13.10;;;6.10;99.90;;;;;;5058768;28;20231;-76
2023/04/16 07:52:44;;;;;;;30.23;12.50;;;6.10;99.90;;;;;;5057675;28;20284;-76
2023/04/16 07:55:10;;;;;;;29.53;10.67;;;6.10;99.90;;;;;;5054294;28;20473;-80
2023/04/16 07:57:35;;;;;;;30.90;11.70;;;6.20;99.90;;;;;;5062117;28;20428;-76
2023/04/16 08:00:03;;;;;;;26.97;11.97;;;6.20;99.90;;;;;;5053129;28;20231;-76
2023/04/16 08:02:29;;;;;;;29.30;13.40;;;6.10;99.90;;;;;;5060534;28;20231;-76
2023/04/16 08:04:55;;;;;;;25.00;13.57;;;6.10;99.90;;;;;;5054777;28;20424;-75
2023/04/16 08:07:20;;;;;;;25.63;12.07;;;6.10;99.90;;;;;;5054938;28;20210;-75
2023/04/16 08:09:48;;;;;;;34.73;12.60;;;6.10;99.90;;;;;;5059396;28;20732;-73
2023/04/16 08:12:15;;;;;;;24.50;10.50;;;6.10;99.90;;;;;;5055622;28;20177;-74
2023/04/16 08:14:40;;;;;;;31.37;12.90;;;6.10;99.90;;;;;;5060093;28;20946;-76
2023/04/16 08:17:06;;;;;;;31.57;11.40;;;6.10;99.90;;;;;;5061461;28;20416;-74
2023/04/16 08:19:32;;;;;;;22.60;10.80;;;6.20;99.90;;;;;;5059545;28;20211;-75
2023/04/16 08:21:57;;;;;;;31.23;11.87;;;6.20;99.90;;;;;;5061667;28;20205;-75
2023/04/16 08:24:23;;;;;;;32.00;12.43;;;6.10;99.90;;;;;;5056008;28;20209;-74
2023/04/16 08:26:49;;;;;;;25.23;12.40;;;6.10;99.90;;;;;;5057348;28;20182;-74
2023/04/16 08:29:15;;;;;;;35.03;10.43;;;6.20;99.90;;;;;;5058080;28;20173;-74
2023/04/16 08:31:40;;;;;;;32.07;12.90;;;6.20;99.90;;;;;;5063332;28;20169;-75
2023/04/16 08:34:06;;;;;;;25.60;11.53;;;6.20;99.90;;;;;;5056949;28;20633;-74
2023/04/16 08:36:32;;;;;;;26.90;10.73;;;6.20;99.90;;;;;;5059885;28;20181;-74
2023/04/16 08:38:57;;;;;;;25.27;11.17;;;6.20;99.90;;;;;;5055941;28;20357;-74
2023/04/16 08:41:23;;;;;;;25.20;13.27;;;6.20;99.90;;;;;;5056297;28;20184;-74
2023/04/16 08:43:54;;;;;;;24.97;12.60;;;6.20;99.90;;;;;;5056555;28;20535;-78
2023/04/16 08:46:23;;;;;;;24.83;11.73;;;6.30;99.90;;;;;;5060045;28;20436;-78
2023/04/16 08:48:54;;;;;;;38.10;12.40;;;6.20;99.90;;;;;;5062014;28;20470;-78
2023/04/16 08:51:22;;;;;;;29.93;11.60;;;6.30;99.90;;;;;;5059368;28;20424;-77
2023/04/16 08:53:50;;;;;;;29.03;11.10;;;6.30;99.90;;;;;;5059435;28;20428;-77
2023/04/16 08:56:19;;;;;;;23.60;10.70;;;6.40;99.90;;;;;;5056016;28;20516;-77
2023/04/16 08:58:46;;;;;;;29.57;10.10;;;6.30;99.90;;;;;;5049462;28;20424;-78
2023/04/16 09:01:12;;;;;;;22.63;9.90;;;6.30;99.90;;;;;;5054747;28;20419;-78
2023/04/16 09:03:38;;;;;;;25.60;10.77;;;6.30;99.90;;;;;;5063737;28;20489;-78
2023/04/16 09:06:04;;;;;;;16.57;8.30;;;6.30;99.90;;;;;;5059666;28;20718;-77
2023/04/16 09:08:31;;;;;;;23.00;10.20;;;6.30;99.90;;;;;;5056379;28;20205;-77
2023/04/16 09:10:58;;;;;;;30.77;9.20;;;6.40;99.90;;;;;;5058276;28;20419;-77
2023/04/16 09:13:24;;;;;;;20.83;9.33;;;6.40;99.90;;;;;;5057187;28;20419;-76
2023/04/16 09:15:52;;;;;;;23.10;10.00;;;6.40;99.90;;;;;;5066528;28;20415;-77
2023/04/16 09:18:19;;;;;;;21.33;8.87;;;6.40;99.90;;;;;;5061176;28;20419;-73
2023/04/16 09:20:45;;;;;;;24.33;11.25;;;6.60;99.90;;;;;;5057095;28;20883;-75
2023/04/16 09:23:10;;;;;;;20.27;9.60;;;6.60;99.90;;;;;;5056282;28;20195;-74
2023/04/16 09:25:37;;;;;;;23.33;10.10;;;6.70;99.90;;;;;;5057826;28;20544;-74
2023/04/16 09:28:03;;;;;;;22.43;8.50;;;6.80;99.90;;;;;;5059293;28;20213;-74
2023/04/16 09:30:28;;;;;;;19.53;8.40;;;6.80;99.90;;;;;;5056913;28;20424;-74
2023/04/16 09:33:20;;;;;;;21.83;10.17;;;6.80;99.90;;;;;;5055539;28;20563;-73
2023/04/16 09:35:50;;;;;;;19.20;7.60;;;6.90;99.90;;;;;;5055774;28;20196;-73
2023/04/16 09:38:17;;;;;;;20.87;9.20;;;6.90;99.90;;;;;;5061880;28;20423;-74
2023/04/16 09:40:42;;;;;;;23.07;9.93;;;7.00;99.90;;;;;;5060943;28;20427;-75
2023/04/16 09:43:16;;;;;;;13.37;8.17;;;6.90;99.90;;;;;;5058649;28;20434;-75
2023/04/16 09:45:52;;;;;;;22.60;8.97;;;7.00;99.90;;;;;;5055518;28;20203;-74
2023/04/16 09:48:32;;;;;;;14.43;7.63;;;6.90;99.90;;;;;;5060096;28;20959;-74
2023/04/16 09:50:59;;;;;;;17.33;7.83;;;6.90;99.90;;;;;;5064771;28;20415;-74
2023/04/16 09:53:27;;;;;;;28.33;9.40;;;6.90;99.90;;;;;;5059196;28;20514;-74
2023/04/16 09:56:00;;;;;;;23.47;8.57;;;6.80;99.90;;;;;;5056362;28;20448;-74
2023/04/16 09:58:26;;;;;;;18.47;9.53;;;6.80;99.90;;;;;;5054298;28;20432;-76
2023/04/16 10:01:06;;;;;;;17.83;8.90;;;6.80;99.90;;;;;;5061435;28;20919;-74
2023/04/16 10:03:33;;;;;;;18.67;9.53;;;6.80;99.90;;;;;;5061018;28;20415;-74
2023/04/16 10:06:13;;;;;;;25.30;10.13;;;6.80;99.90;;;;;;5063584;28;20427;-74
2023/04/16 10:08:45;;;;;;;23.60;9.80;;;6.70;99.90;;;;;;5057246;28;20455;-73
2023/04/16 10:11:11;;;;;;;25.73;10.80;;;6.70;99.90;;;;;;5059420;28;20427;-74
2023/04/16 10:13:36;;;;;;;28.53;10.90;;;6.70;99.90;;;;;;5059660;28;20507;-73
2023/04/16 10:16:02;;;;;;;19.03;9.60;;;6.80;99.90;;;;;;5070447;28;20529;-73
2023/04/16 10:18:29;;;;;;;23.53;10.03;;;6.80;99.90;;;;;;5061356;28;20633;-74
2023/04/16 10:20:56;;;;;;;24.23;9.97;;;6.80;99.90;;;;;;5058615;28;20535;-74
2023/04/16 10:23:22;;;;;;;28.10;10.73;;;6.80;99.90;;;;;;5061951;28;20493;-76
2023/04/16 10:25:49;;;;;;;27.73;10.53;;;6.70;99.90;;;;;;5066014;28;20518;-74
2023/04/16 10:28:15;;;;;;;26.93;9.80;;;6.70;99.90;;;;;;5063738;28;20497;-73
2023/04/16 10:30:51;;;;;;;19.63;9.90;;;6.70;99.90;;;;;;5065906;28;20857;-74
2023/04/16 10:33:27;;;;;;;28.40;9.33;;;6.80;99.90;;;;;;5061787;28;20439;-74
2023/04/16 10:36:08;;;;;;;30.43;10.97;;;6.80;99.90;;;;;;5055959;28;20404;-75
2023/04/16 10:38:36;;;;;;;27.47;11.40;;;6.90;99.90;;;;;;5061787;28;20446;-74
2023/04/16 10:41:03;;;;;;;19.50;8.50;;;6.90;99.90;;;;;;5058670;28;20420;-74
2023/04/16 10:43:30;;;;;;;25.97;10.17;;;6.90;99.90;;;;;;5058975;28;20466;-74
2023/04/16 10:45:56;;;;;;;25.53;9.40;;;6.90;99.90;;;;;;5062587;28;20967;-74
2023/04/16 10:48:24;;;;;;;21.67;9.63;;;7.00;99.90;;;;;;5061503;28;20557;-74
2023/04/16 10:50:55;;;;;;;22.93;10.93;;;7.00;99.90;;;;;;5057383;28;20185;-69
2023/04/16 10:53:25;;;;;;;27.17;9.27;;;7.00;99.90;;;;;;5053802;28;20496;-68
2023/04/16 10:56:03;;;;;;;29.90;10.80;;;6.90;99.90;;;;;;5055171;28;20413;-75
2023/04/16 10:58:35;;;;;;;22.73;8.43;;;7.00;99.90;;;;;;5053928;28;20451;-73
2023/04/16 11:01:05;;;;;;;18.40;9.80;;;7.00;99.90;;;;;;5054084;28;20527;-73
2023/04/16 11:03:31;;;;;;;23.50;10.33;;;7.00;99.90;;;;;;5058392;28;20434;-74
2023/04/16 11:06:16;;;;;;;14.67;7.67;;;7.00;99.90;;;;;;5053612;28;20929;-73
2023/04/16 11:08:46;;;;;;;15.53;7.50;;;7.00;99.90;;;;;;5058582;28;20780;-78
2023/04/16 11:11:12;;;;;;;20.70;8.97;;;6.90;99.90;;;;;;5064939;28;20514;-74
2023/04/16 11:13:42;;;;;;;18.70;8.67;;;7.00;99.90;;;;;;5057897;28;20925;-79
2023/04/16 11:16:07;;;;;;;15.23;8.90;;;7.00;99.90;;;;;;5056945;28;20404;-68
2023/04/16 11:18:33;;;;;;;19.73;7.20;;;7.10;99.90;;;;;;5053280;28;20912;-68
2023/04/16 11:20:59;;;;;;;19.40;7.83;;;7.10;99.90;;;;;;5051397;28;20181;-67
2023/04/16 11:23:25;;;;;;;18.13;6.90;;;7.10;99.90;;;;;;5049167;28;20193;-67
2023/04/16 11:25:55;;;;;;;13.37;6.60;;;7.20;99.90;;;;;;5048690;28;20463;-67
2023/04/16 11:28:31;;;;;;;18.33;8.13;;;7.20;99.90;;;;;;5044992;28;20245;-67
2023/04/16 11:30:57;;;;;;;13.00;6.20;;;7.20;99.90;;;;;;5051751;28;20527;-68
2023/04/16 11:33:24;;;;;;;11.80;6.77;;;7.30;99.90;;;;;;5053639;28;20527;-67
2023/04/16 11:35:57;;;;;;;13.63;6.53;;;7.30;99.90;;;;;;5050583;28;20182;-68
2023/04/16 11:38:33;;;;;;;14.00;7.33;;;7.40;99.90;;;;;;5050164;28;20428;-69
2023/04/16 11:40:58;;;;;;;14.30;5.57;;;7.50;99.90;;;;;;5053722;28;20431;-69
2023/04/16 11:43:25;;;;;;;11.17;6.03;;;7.50;99.90;;;;;;5049403;28;20432;-69
2023/04/16 11:45:59;;;;;;;11.13;5.47;;;7.50;99.90;;;;;;5055993;28;20185;-69
2023/04/16 11:48:25;;;;;;;11.60;5.33;;;7.50;99.90;;;;;;5046221;28;20464;-69
2023/04/16 11:50:56;;;;;;;11.00;6.03;;;7.60;99.90;;;;;;5053047;28;20461;-69
2023/04/16 11:53:21;;;;;;;12.87;5.23;;;7.60;99.90;;;;;;5051121;28;20798;-69
2023/04/16 11:55:47;;;;;;;7.80;4.60;;;7.60;99.90;;;;;;5051807;28;20412;-69
2023/04/16 11:58:15;;;;;;;11.50;5.47;;;7.50;99.90;;;;;;5048566;28;20201;-69
2023/04/16 12:00:42;;;;;;;8.40;5.40;;;7.50;99.90;;;;;;5059223;28;20205;-69
2023/04/16 12:03:08;;;;;;;10.20;5.87;;;7.50;99.90;;;;;;5057446;28;20443;-69
2023/04/16 12:05:38;;;;;;;15.30;6.70;;;7.50;99.90;;;;;;5060017;28;20900;-69
2023/04/16 12:08:04;;;;;;;16.47;5.80;;;7.50;99.90;;;;;;5049384;28;20201;-69
2023/04/16 12:10:35;;;;;;;8.20;4.60;;;7.60;99.90;;;;;;5056734;28;20794;-69
2023/04/16 12:13:15;;;;;;;13.23;4.50;;;7.60;99.90;;;;;;5049693;28;20177;-69
2023/04/16 12:15:47;;;;;;;12.00;5.40;;;7.60;99.90;;;;;;5048029;28;20895;-70
2023/04/16 12:18:14;;;;;;;6.40;3.30;;;7.70;99.90;;;;;;5059105;28;20427;-69
2023/04/16 12:20:42;;;;;;;11.87;4.13;;;7.60;99.90;;;;;;5048978;28;20486;-70
2023/04/16 12:23:07;;;;;;;10.67;4.80;;;7.70;99.90;;;;;;5049196;28;20465;-70
2023/04/16 12:25:33;;;;;;;7.40;3.90;;;7.70;99.90;;;;;;5057676;28;20428;-69
2023/04/16 12:28:00;;;;;;;6.50;3.57;;;7.70;99.90;;;;;;5050744;28;20566;-70
2023/04/16 12:30:26;;;;;;;8.03;4.30;;;7.70;99.90;;;;;;5051571;28;20728;-69
2023/04/16 12:33:12;;;;;;;13.60;4.97;;;7.60;99.90;;;;;;5051805;28;20403;-69
2023/04/16 12:35:40;;;;;;;7.63;3.97;;;7.60;99.90;;;;;;5047334;28;20408;-69
2023/04/16 12:38:06;;;;;;;12.73;4.67;;;7.70;99.90;;;;;;5057870;28;20543;-69
2023/04/16 12:40:32;;;;;;;6.27;3.50;;;7.80;99.90;;;;;;5060197;28;20505;-67
2023/04/16 12:42:58;;;;;;;7.90;2.80;;;7.70;99.90;;;;;;5049862;28;20634;-68
2023/04/16 12:45:24;;;;;;;6.33;3.07;;;7.80;99.90;;;;;;5048470;28;20529;-68